createdAt,value
2023-02-11T00:01:53.732Z,-1.10
2023-02-11T00:04:16.382Z,-1.08
2023-02-11T00:06:39.191Z,-1.03
2023-02-11T00:09:02.482Z,-1.11
2023-02-11T00:11:30.357Z,-1.11
2023-02-11T00:13:52.964Z,-1.21
2023-02-11T00:16:19.319Z,-1.21
2023-02-11T00:18:42.159Z,-1.31
2023-02-11T00:21:18.815Z,-1.35
2023-02-11T00:23:42.232Z,-1.32
2023-02-11T00:26:11.896Z,-1.40
2023-02-11T00:28:35.943Z,-1.44
2023-02-11T00:30:59.290Z,-1.44
2023-02-11T00:33:22.008Z,-1.50
2023-02-11T00:35:44.627Z,-1.51
2023-02-11T00:38:07.972Z,-1.56
2023-02-11T00:40:30.741Z,-1.55
2023-02-11T00:42:53.362Z,-1.61
2023-02-11T00:45:15.970Z,-1.68
2023-02-11T00:47:39.018Z,-1.69
2023-02-11T00:50:04.668Z,-1.76
2023-02-11T00:52:27.519Z,-1.79
2023-02-11T00:54:50.104Z,-1.78
2023-02-11T00:57:12.764Z,-1.85
2023-02-11T00:59:35.489Z,-1.85
2023-02-11T01:01:58.222Z,-1.86
2023-02-11T01:04:20.988Z,-1.87
2023-02-11T01:06:43.560Z,-1.87
2023-02-11T01:09:06.271Z,-1.87
2023-02-11T01:11:30.982Z,-1.89
2023-02-11T01:13:53.608Z,-1.90
2023-02-11T01:16:18.290Z,-1.86
2023-02-11T01:18:42.813Z,-1.89
2023-02-11T01:21:06.000Z,-1.93
2023-02-11T01:23:28.567Z,-1.89
2023-02-11T01:25:51.543Z,-1.80
2023-02-11T01:28:23.251Z,-1.87
2023-02-11T01:30:46.976Z,-2.03
2023-02-11T01:33:09.607Z,-2.07
2023-02-11T01:35:33.279Z,-2.04
2023-02-11T01:37:55.915Z,-2.03
2023-02-11T01:40:20.396Z,-2.04
2023-02-11T01:42:44.315Z,-2.09
2023-02-11T01:45:44.586Z,-2.15
2023-02-11T01:48:09.011Z,-2.15
2023-02-11T01:50:32.083Z,-2.09
2023-02-11T01:53:14.981Z,-2.15
2023-02-11T01:55:58.441Z,-2.15
2023-02-11T01:58:22.478Z,-2.28
2023-02-11T02:00:45.674Z,-2.36
2023-02-11T02:03:13.205Z,-2.42
2023-02-11T02:05:56.015Z,-2.47
2023-02-11T02:08:40.636Z,-2.47
2023-02-11T02:11:03.844Z,-2.52
2023-02-11T02:13:28.086Z,-2.54
2023-02-11T02:15:58.131Z,-2.48
2023-02-11T02:18:51.863Z,-2.54
2023-02-11T02:21:51.856Z,-2.54
2023-02-11T02:24:35.034Z,-2.47
2023-02-11T02:27:13.772Z,-2.41
2023-02-11T02:29:57.199Z,-2.36
2023-02-11T02:32:38.513Z,-2.30
2023-02-11T02:35:10.347Z,-2.30
2023-02-11T02:37:45.621Z,-2.28
2023-02-11T02:40:15.807Z,-2.49
2023-02-11T02:42:40.491Z,-2.44
2023-02-11T02:45:03.572Z,-2.38
2023-02-11T02:47:26.815Z,-2.36
2023-02-11T02:49:49.535Z,-2.42
2023-02-11T02:52:28.936Z,-2.51
2023-02-11T02:54:51.497Z,-2.65
2023-02-11T02:57:38.558Z,-2.70
2023-02-11T03:00:07.010Z,-3.01
2023-02-11T03:02:36.339Z,-3.14
2023-02-11T03:05:27.719Z,-3.35
2023-02-11T03:08:05.825Z,-3.51
2023-02-11T03:10:33.254Z,-3.52
2023-02-11T03:12:57.098Z,-3.41
2023-02-11T03:15:22.576Z,-3.25
2023-02-11T03:17:49.414Z,-3.17
2023-02-11T03:20:14.729Z,-3.17
2023-02-11T03:22:48.244Z,-3.03
2023-02-11T03:25:11.088Z,-3.04
2023-02-11T03:27:42.295Z,-3.00
2023-02-11T03:30:06.814Z,-2.86
2023-02-11T03:32:35.557Z,-2.79
2023-02-11T03:35:11.891Z,-2.95
2023-02-11T03:37:45.390Z,-2.75
2023-02-11T03:40:11.916Z,-2.69
2023-02-11T03:42:44.094Z,-2.70
2023-02-11T03:45:11.081Z,-2.65
2023-02-11T03:47:37.118Z,-2.61
2023-02-11T03:50:02.182Z,-2.54
2023-02-11T03:52:26.351Z,-2.64
2023-02-11T03:54:55.904Z,-2.62
2023-02-11T03:57:18.489Z,-2.47
2023-02-11T03:59:58.599Z,-2.51
2023-02-11T04:02:24.167Z,-2.44
2023-02-11T04:04:47.255Z,-2.42
2023-02-11T04:07:12.009Z,-2.51
2023-02-11T04:09:35.376Z,-2.54
2023-02-11T04:11:58.215Z,-2.76
2023-02-11T04:14:20.789Z,-2.86
2023-02-11T04:16:43.420Z,-2.87
2023-02-11T04:19:06.242Z,-2.93
2023-02-11T04:21:28.800Z,-2.93
2023-02-11T04:23:51.427Z,-2.95
2023-02-11T04:26:14.054Z,-2.95
2023-02-11T04:28:36.767Z,-2.95
2023-02-11T04:30:59.417Z,-2.96
2023-02-11T04:33:23.238Z,-2.87
2023-02-11T04:35:46.042Z,-2.61
2023-02-11T04:38:08.595Z,-2.55
2023-02-11T04:40:31.692Z,-2.58
2023-02-11T04:42:54.284Z,-2.64
2023-02-11T04:45:17.165Z,-2.73
2023-02-11T04:47:39.756Z,-2.59
2023-02-11T04:50:02.497Z,-2.52
2023-02-11T04:52:25.380Z,-2.55
2023-02-11T04:54:48.021Z,-2.55
2023-02-11T04:57:10.630Z,-2.54
2023-02-11T04:59:33.387Z,-2.59
2023-02-11T05:01:55.981Z,-2.59
2023-02-11T05:04:18.849Z,-2.70
2023-02-11T05:06:41.546Z,-2.80
2023-02-11T05:09:04.166Z,-3.04
2023-02-11T05:11:26.824Z,-3.07
2023-02-11T05:13:49.600Z,-2.97
2023-02-11T05:16:13.094Z,-2.92
2023-02-11T05:18:38.399Z,-2.96
2023-02-11T05:21:06.529Z,-3.13
2023-02-11T05:23:29.164Z,-3.03
2023-02-11T05:25:51.959Z,-3.01
2023-02-11T05:28:15.490Z,-2.92
2023-02-11T05:30:38.197Z,-2.93
2023-02-11T05:33:00.982Z,-3.07
2023-02-11T05:35:23.993Z,-2.99
2023-02-11T05:37:46.625Z,-3.08
2023-02-11T05:40:09.754Z,-3.20
2023-02-11T05:42:32.396Z,-3.10
2023-02-11T05:44:54.935Z,-3.03
2023-02-11T05:47:17.864Z,-2.97
2023-02-11T05:49:40.511Z,-2.95
2023-02-11T05:52:03.500Z,-2.99
2023-02-11T05:54:26.316Z,-2.85
2023-02-11T05:56:48.967Z,-2.90
2023-02-11T05:59:14.227Z,-2.97
2023-02-11T06:01:36.971Z,-2.97
2023-02-11T06:03:59.641Z,-2.99
2023-02-11T06:06:22.320Z,-2.89
2023-02-11T06:08:44.890Z,-2.82
2023-02-11T06:11:07.531Z,-2.62
2023-02-11T06:13:29.979Z,-2.66
2023-02-11T06:15:57.382Z,-2.52
2023-02-11T06:18:19.945Z,-2.38
2023-02-11T06:20:42.566Z,-2.21
2023-02-11T06:23:05.275Z,-2.09
2023-02-11T06:25:27.866Z,-1.90
2023-02-11T06:27:50.613Z,-1.73
2023-02-11T06:30:14.011Z,-1.66
2023-02-11T06:32:44.308Z,-1.41
2023-02-11T06:35:09.985Z,-1.21
2023-02-11T06:37:35.218Z,-1.23
2023-02-11T06:39:57.858Z,-1.01
2023-02-11T06:42:20.557Z,-0.87
2023-02-11T06:44:43.230Z,-0.62
2023-02-11T06:47:05.815Z,-0.31
2023-02-11T06:49:29.116Z,0.14
2023-02-11T06:51:51.676Z,0.42
2023-02-11T06:54:14.890Z,0.27
2023-02-11T06:56:40.417Z,-0.35
2023-02-11T06:59:03.559Z,-0.42
2023-02-11T07:01:27.371Z,0.01
2023-02-11T07:03:51.044Z,0.45
2023-02-11T07:06:16.831Z,1.07
2023-02-11T07:08:40.613Z,1.64
2023-02-11T07:11:14.407Z,1.95
2023-02-11T07:13:37.544Z,2.26
2023-02-11T07:16:05.322Z,2.52
2023-02-11T07:18:28.137Z,2.41
2023-02-11T07:20:50.758Z,1.83
2023-02-11T07:23:13.442Z,1.34
2023-02-11T07:25:36.550Z,1.12
2023-02-11T07:27:59.539Z,0.95
2023-02-11T07:30:22.357Z,0.96
2023-02-11T07:32:44.960Z,0.96
2023-02-11T07:35:07.786Z,1.14
2023-02-11T07:37:30.458Z,1.10
2023-02-11T07:39:53.045Z,1.43
2023-02-11T07:42:15.786Z,1.35
2023-02-11T07:44:38.599Z,1.71
2023-02-11T07:47:01.453Z,1.71
2023-02-11T07:49:24.368Z,1.71
2023-02-11T07:51:49.121Z,1.92
2023-02-11T07:54:12.403Z,2.13
2023-02-11T07:56:35.145Z,1.98
2023-02-11T07:59:01.700Z,2.13
2023-02-11T08:01:28.474Z,1.73
2023-02-11T08:03:51.762Z,1.93
2023-02-11T08:06:16.248Z,2.19
2023-02-11T08:08:39.616Z,1.93
2023-02-11T08:11:28.721Z,2.07
2023-02-11T08:13:52.467Z,2.09
2023-02-11T08:16:22.427Z,2.16
2023-02-11T08:18:45.139Z,2.44
2023-02-11T08:21:10.028Z,2.62
2023-02-11T08:23:32.792Z,2.38
2023-02-11T08:25:55.334Z,2.66
2023-02-11T08:28:18.021Z,2.64
2023-02-11T08:30:40.790Z,2.55
2023-02-11T08:33:03.769Z,2.74
2023-02-11T08:35:26.326Z,3.09
2023-02-11T08:37:49.058Z,3.22
2023-02-11T08:40:11.882Z,3.20
2023-02-11T08:42:34.580Z,3.03
2023-02-11T08:44:57.204Z,3.28
2023-02-11T08:47:19.849Z,3.60
2023-02-11T08:49:43.089Z,3.68
2023-02-11T08:52:06.756Z,3.82
2023-02-11T08:54:30.076Z,3.82
2023-02-11T08:56:52.820Z,3.86
2023-02-11T08:59:17.194Z,3.96
2023-02-11T09:01:40.133Z,3.95
2023-02-11T09:04:02.784Z,3.95
2023-02-11T09:06:26.571Z,3.85
2023-02-11T09:08:51.676Z,3.92
2023-02-11T09:11:14.439Z,3.91
2023-02-11T09:13:37.695Z,3.54
2023-02-11T09:16:02.296Z,3.74
2023-02-11T09:18:25.518Z,3.88
2023-02-11T09:20:48.304Z,3.92
2023-02-11T09:23:11.306Z,3.81
2023-02-11T09:25:33.936Z,3.93
2023-02-11T09:27:56.600Z,3.86
2023-02-11T09:30:19.865Z,4.01
2023-02-11T09:32:42.986Z,4.43
2023-02-11T09:35:05.942Z,4.68
2023-02-11T09:37:28.524Z,4.65
2023-02-11T09:39:51.492Z,5.19
2023-02-11T09:42:38.591Z,5.13
2023-02-11T09:45:02.681Z,5.30
2023-02-11T09:47:30.477Z,5.39
2023-02-11T09:50:10.686Z,5.54
2023-02-11T09:52:42.402Z,5.74
2023-02-11T09:55:27.541Z,5.84
2023-02-11T09:57:50.352Z,5.77
2023-02-11T10:00:40.138Z,5.95
2023-02-11T10:03:41.846Z,6.23
2023-02-11T10:06:07.241Z,6.16
2023-02-11T10:09:03.966Z,6.12
2023-02-11T10:11:52.454Z,6.49
2023-02-11T10:14:54.828Z,6.66
2023-02-11T10:17:44.146Z,6.76
2023-02-11T10:20:19.785Z,6.84
2023-02-11T10:23:14.652Z,6.76
2023-02-11T10:25:39.882Z,6.83
2023-02-11T10:28:31.220Z,6.81
2023-02-11T10:30:59.863Z,6.73
2023-02-11T10:33:34.491Z,6.46
2023-02-11T10:35:57.236Z,6.40
2023-02-11T10:38:20.111Z,6.06
2023-02-11T10:40:43.093Z,6.04
2023-02-11T10:43:11.124Z,6.18
2023-02-11T10:45:38.486Z,6.22
2023-02-11T10:48:04.239Z,6.16
2023-02-11T10:50:29.780Z,6.05
2023-02-11T10:53:21.223Z,5.68
2023-02-11T10:55:51.171Z,5.73
2023-02-11T10:58:24.051Z,5.68
2023-02-11T11:00:52.979Z,5.64
2023-02-11T11:03:21.993Z,5.60
2023-02-11T11:05:51.023Z,5.81
2023-02-11T11:08:13.704Z,5.98
2023-02-11T11:10:47.005Z,6.33
2023-02-11T11:13:34.393Z,6.57
2023-02-11T11:16:12.144Z,6.88
2023-02-11T11:18:35.116Z,7.01
2023-02-11T11:21:01.330Z,6.95
2023-02-11T11:23:25.065Z,7.05
2023-02-11T11:26:25.910Z,7.28
2023-02-11T11:29:02.621Z,7.53
2023-02-11T11:31:28.559Z,7.67
2023-02-11T11:33:53.255Z,7.88
2023-02-11T11:36:21.967Z,7.60
2023-02-11T11:38:50.995Z,7.66
2023-02-11T11:41:16.313Z,7.42
2023-02-11T11:43:38.853Z,7.50
2023-02-11T11:46:02.960Z,7.50
2023-02-11T11:48:37.652Z,7.46
2023-02-11T11:51:04.234Z,7.64
2023-02-11T11:53:36.313Z,7.88
2023-02-11T11:56:22.846Z,7.88
2023-02-11T11:58:45.874Z,8.05
2023-02-11T12:01:15.733Z,8.08
2023-02-11T12:04:15.892Z,8.18
2023-02-11T12:06:47.247Z,8.06
2023-02-11T12:09:31.093Z,7.90
2023-02-11T12:12:15.353Z,7.95
2023-02-11T12:14:49.851Z,8.25
2023-02-11T12:17:57.853Z,8.57
2023-02-11T12:20:39.983Z,8.69
2023-02-11T12:23:14.863Z,8.96
2023-02-11T12:25:57.778Z,9.18
2023-02-11T12:28:37.466Z,9.32
2023-02-11T12:31:18.553Z,9.05
2023-02-11T12:34:01.733Z,8.90
2023-02-11T12:36:36.656Z,9.18
2023-02-11T12:42:48.813Z,9.08
2023-02-11T12:45:11.321Z,9.18
2023-02-11T12:47:59.448Z,9.11
2023-02-11T12:50:43.162Z,9.14
2023-02-11T12:53:05.706Z,8.88
2023-02-11T12:55:37.238Z,8.53
2023-02-11T12:58:01.862Z,8.71
2023-02-11T13:00:43.711Z,8.88
2023-02-11T13:03:17.041Z,8.67
2023-02-11T13:05:54.232Z,8.76
2023-02-11T13:08:26.059Z,8.67
2023-02-11T13:10:54.781Z,8.71
2023-02-11T13:13:26.209Z,8.49
2023-02-11T13:15:56.135Z,8.25
2023-02-11T13:18:49.589Z,7.95
2023-02-11T13:21:15.189Z,8.02
2023-02-11T13:23:59.982Z,8.15
2023-02-11T13:26:38.055Z,8.18
2023-02-11T13:29:18.959Z,8.33
2023-02-11T13:31:41.880Z,8.70
2023-02-11T13:34:23.339Z,8.85
2023-02-11T13:36:54.947Z,8.80
2023-02-11T13:39:21.693Z,8.97
2023-02-11T13:41:52.210Z,9.00
2023-02-11T13:44:19.345Z,8.87
2023-02-11T13:47:05.010Z,8.91
2023-02-11T13:49:32.345Z,8.97
2023-02-11T13:51:56.752Z,9.03
2023-02-11T13:54:40.055Z,9.05
2023-02-11T13:57:21.082Z,9.03
2023-02-11T13:59:49.936Z,8.98
2023-02-11T14:02:47.136Z,8.94
2023-02-11T14:05:34.568Z,8.77
2023-02-11T14:08:28.116Z,8.57
2023-02-11T14:10:54.192Z,8.35
2023-02-11T14:13:33.078Z,8.38
2023-02-11T14:16:10.879Z,8.16
2023-02-11T14:18:45.790Z,8.15
2023-02-11T14:21:17.143Z,8.16
2023-02-11T14:23:41.020Z,8.02
2023-02-11T14:26:21.037Z,8.02
2023-02-11T14:28:46.879Z,7.76
2023-02-11T14:31:18.466Z,7.77
2023-02-11T14:34:04.277Z,7.52
2023-02-11T14:36:46.372Z,7.32
2023-02-11T14:39:25.191Z,7.20
2023-02-11T14:41:51.178Z,7.25
2023-02-11T14:44:28.338Z,7.16
2023-02-11T14:46:55.164Z,7.16
2023-02-11T14:49:23.687Z,7.15
2023-02-11T14:51:47.414Z,7.04
2023-02-11T14:54:18.218Z,6.95
2023-02-11T14:56:42.364Z,6.95
2023-02-11T14:59:17.687Z,6.91
2023-02-11T15:01:42.441Z,6.91
2023-02-11T15:04:21.603Z,6.80
2023-02-11T15:06:49.687Z,6.76
2023-02-11T15:09:26.913Z,6.77
2023-02-11T15:11:52.087Z,6.80
2023-02-11T15:14:17.415Z,6.64
2023-02-11T15:16:43.561Z,6.47
2023-02-11T15:19:07.854Z,6.44
2023-02-11T15:21:34.800Z,6.40
2023-02-11T15:24:01.050Z,6.32
2023-02-11T15:26:24.045Z,6.25
2023-02-11T15:28:52.199Z,6.25
2023-02-11T15:31:16.799Z,6.19
2023-02-11T15:33:39.761Z,6.23
2023-02-11T15:36:03.008Z,6.15
2023-02-11T15:38:25.890Z,6.11
2023-02-11T15:40:58.484Z,6.04
2023-02-11T15:43:21.413Z,6.05
2023-02-11T15:46:02.576Z,5.98
2023-02-11T15:48:34.244Z,5.99
2023-02-11T15:51:05.111Z,6.01
2023-02-11T15:53:40.509Z,5.98
2023-02-11T15:56:20.213Z,5.99
2023-02-11T15:58:47.588Z,5.97
2023-02-11T16:01:11.426Z,5.94
2023-02-11T16:03:34.629Z,5.74
2023-02-11T16:05:57.286Z,5.90
2023-02-11T16:08:22.203Z,5.78
2023-02-11T16:10:58.951Z,5.77
2023-02-11T16:13:21.596Z,5.67
2023-02-11T16:16:02.526Z,5.61
2023-02-11T16:18:39.286Z,5.71
2023-02-11T16:21:04.214Z,5.68
2023-02-11T16:23:31.516Z,5.57
2023-02-11T16:26:08.983Z,5.65
2023-02-11T16:28:32.868Z,5.42
2023-02-11T16:30:57.403Z,5.43
2023-02-11T16:33:20.795Z,5.56
2023-02-11T16:35:47.595Z,5.51
2023-02-11T16:38:10.722Z,5.47
2023-02-11T16:40:33.605Z,5.30
2023-02-11T16:42:56.540Z,5.22
2023-02-11T16:45:19.633Z,5.15
2023-02-11T16:47:43.379Z,4.92
2023-02-11T16:50:09.328Z,4.87
2023-02-11T16:52:32.545Z,4.87
2023-02-11T16:54:55.410Z,4.81
2023-02-11T16:57:21.458Z,4.84
2023-02-11T16:59:45.290Z,4.82
2023-02-11T17:02:24.069Z,4.84
2023-02-11T17:04:47.088Z,4.87
2023-02-11T17:07:09.940Z,4.85
2023-02-11T17:09:33.208Z,4.88
2023-02-11T17:11:56.105Z,4.88
2023-02-11T17:14:19.851Z,4.96
2023-02-11T17:16:43.238Z,4.89
2023-02-11T17:19:06.243Z,4.84
2023-02-11T17:21:31.499Z,4.84
2023-02-11T17:23:54.367Z,5.04
2023-02-11T17:26:17.181Z,4.85
2023-02-11T17:28:40.300Z,4.85
2023-02-11T17:31:07.503Z,4.82
2023-02-11T17:33:30.091Z,4.78
2023-02-11T17:35:53.189Z,4.74
2023-02-11T17:38:16.617Z,4.65
2023-02-11T17:40:39.412Z,4.79
2023-02-11T17:43:02.207Z,4.79
2023-02-11T17:45:24.800Z,4.72
2023-02-11T17:47:49.233Z,4.61
2023-02-11T17:50:12.132Z,4.56
2023-02-11T17:52:36.705Z,4.49
2023-02-11T17:54:59.516Z,4.68
2023-02-11T17:57:22.568Z,4.77
2023-02-11T17:59:45.689Z,4.85
2023-02-11T18:02:12.450Z,4.99
2023-02-11T18:04:36.341Z,4.85
2023-02-11T18:06:59.369Z,4.77
2023-02-11T18:09:22.314Z,4.70
2023-02-11T18:11:45.850Z,4.65
2023-02-11T18:14:10.170Z,4.82
2023-02-11T18:16:36.385Z,4.89
2023-02-11T18:18:59.095Z,5.13
2023-02-11T18:21:22.956Z,5.08
2023-02-11T18:23:46.374Z,4.92
2023-02-11T18:26:11.031Z,4.64
2023-02-11T18:28:34.095Z,4.61
2023-02-11T18:31:00.806Z,4.53
2023-02-11T18:33:23.987Z,4.64
2023-02-11T18:35:49.197Z,4.46
2023-02-11T18:38:12.297Z,4.43
2023-02-11T18:40:35.612Z,4.32
2023-02-11T18:42:58.607Z,4.30
2023-02-11T18:45:21.259Z,4.32
2023-02-11T18:47:44.265Z,4.50
2023-02-11T18:50:09.044Z,4.56
2023-02-11T18:52:33.199Z,4.44
2023-02-11T18:54:56.085Z,4.43
2023-02-11T18:57:18.963Z,4.40
2023-02-11T18:59:42.950Z,4.40
2023-02-11T19:02:05.602Z,4.39
2023-02-11T19:04:28.458Z,4.41
2023-02-11T19:06:52.222Z,4.46
2023-02-11T19:09:17.893Z,4.44
2023-02-11T19:11:46.943Z,4.51
2023-02-11T19:14:10.466Z,4.58
2023-02-11T19:16:33.349Z,4.58
2023-02-11T19:18:57.176Z,4.60
2023-02-11T19:21:20.717Z,4.64
2023-02-11T19:23:46.695Z,4.74
2023-02-11T19:26:09.574Z,4.68
2023-02-11T19:28:33.597Z,4.75
2023-02-11T19:30:56.646Z,4.81
2023-02-11T19:33:19.693Z,4.82
2023-02-11T19:35:42.545Z,5.13
2023-02-11T19:38:05.725Z,5.12
2023-02-11T19:40:28.774Z,5.11
2023-02-11T19:42:52.171Z,5.13
2023-02-11T19:45:15.172Z,5.20
2023-02-11T19:47:38.189Z,5.26
2023-02-11T19:50:01.227Z,5.32
2023-02-11T19:52:25.841Z,5.39
2023-02-11T19:54:48.772Z,5.39
2023-02-11T19:57:11.705Z,5.53
2023-02-11T19:59:34.554Z,5.54
2023-02-11T20:01:57.749Z,5.60
2023-02-11T20:04:20.979Z,5.57
2023-02-11T20:06:45.884Z,5.64
2023-02-11T20:09:12.651Z,5.64
2023-02-11T20:11:36.872Z,5.65
2023-02-11T20:14:00.618Z,5.56
2023-02-11T20:16:36.813Z,5.58
2023-02-11T20:19:07.642Z,5.54
2023-02-11T20:21:32.134Z,5.51
2023-02-11T20:23:55.610Z,5.56
2023-02-11T20:26:24.531Z,5.65
2023-02-11T20:28:49.469Z,5.68
2023-02-11T20:31:13.592Z,5.54
2023-02-11T20:33:37.025Z,5.68
2023-02-11T20:36:05.993Z,5.56
2023-02-11T20:38:28.838Z,5.57
2023-02-11T20:40:52.502Z,5.56
2023-02-11T20:43:15.996Z,5.50
2023-02-11T20:45:39.171Z,5.47
2023-02-11T20:48:02.294Z,5.35
2023-02-11T20:50:25.682Z,5.40
2023-02-11T20:52:48.717Z,5.35
2023-02-11T20:55:12.072Z,5.32
2023-02-11T20:57:35.188Z,5.26
2023-02-11T20:59:58.159Z,5.39
2023-02-11T21:02:24.632Z,5.39
2023-02-11T21:04:48.025Z,5.44
2023-02-11T21:07:11.113Z,5.56
2023-02-11T21:09:35.166Z,5.54
2023-02-11T21:11:58.237Z,5.60
2023-02-11T21:14:22.984Z,5.61
2023-02-11T21:16:46.505Z,5.56
2023-02-11T21:19:09.598Z,5.51
2023-02-11T21:21:32.520Z,5.56
2023-02-11T21:23:56.189Z,5.54
2023-02-11T21:26:19.399Z,5.53
2023-02-11T21:28:42.336Z,5.54
2023-02-11T21:31:06.009Z,5.51
2023-02-11T21:33:29.656Z,5.54
2023-02-11T21:36:00.317Z,5.46
2023-02-11T21:38:24.419Z,5.53
2023-02-11T21:40:47.377Z,5.54
2023-02-11T21:43:10.270Z,5.53
2023-02-11T21:45:33.056Z,5.51
2023-02-11T21:47:55.855Z,5.56
2023-02-11T21:50:19.159Z,5.53
2023-02-11T21:52:41.862Z,5.56
2023-02-11T21:55:08.451Z,5.51
2023-02-11T21:57:31.509Z,5.56
2023-02-11T21:59:54.275Z,5.56
2023-02-11T22:02:17.090Z,5.51
2023-02-11T22:04:39.875Z,5.46
2023-02-11T22:07:05.682Z,5.51
2023-02-11T22:09:29.277Z,5.50
2023-02-11T22:11:53.094Z,5.50
2023-02-11T22:14:16.333Z,5.58
2023-02-11T22:16:39.012Z,5.57
2023-02-11T22:19:02.588Z,5.35
2023-02-11T22:21:26.720Z,5.29
2023-02-11T22:23:50.321Z,5.19
2023-02-11T22:26:16.486Z,5.09
2023-02-11T22:28:40.660Z,4.99
2023-02-11T22:31:03.388Z,4.95
2023-02-11T22:33:27.336Z,4.89
2023-02-11T22:35:57.522Z,4.85
2023-02-11T22:38:20.209Z,4.87
2023-02-11T22:40:43.737Z,4.78
2023-02-11T22:43:06.396Z,4.77
2023-02-11T22:45:29.011Z,4.70
2023-02-11T22:47:51.623Z,4.68
2023-02-11T22:50:14.197Z,4.57
2023-02-11T22:52:36.887Z,4.57
2023-02-11T22:55:00.493Z,4.53
2023-02-11T22:57:23.142Z,4.54
2023-02-11T22:59:45.971Z,4.57
2023-02-11T23:02:08.743Z,4.57
2023-02-11T23:04:31.673Z,4.62
2023-02-11T23:06:54.288Z,4.62
2023-02-11T23:09:17.132Z,4.61
2023-02-11T23:11:41.124Z,4.70
2023-02-11T23:14:05.209Z,4.67
2023-02-11T23:16:31.309Z,4.67
2023-02-11T23:18:54.400Z,4.68
2023-02-11T23:21:21.694Z,4.62
2023-02-11T23:23:45.457Z,4.71
2023-02-11T23:26:17.740Z,4.72
2023-02-11T23:28:42.393Z,4.74
2023-02-11T23:31:18.888Z,4.72
2023-02-11T23:33:41.959Z,4.64
2023-02-11T23:36:05.048Z,4.61
2023-02-11T23:38:27.703Z,4.65
2023-02-11T23:40:50.339Z,4.71
2023-02-11T23:43:13.040Z,4.74
2023-02-11T23:45:35.666Z,4.79
2023-02-11T23:48:00.006Z,4.75
2023-02-11T23:50:22.565Z,4.77
2023-02-11T23:52:46.471Z,4.89
2023-02-11T23:55:09.671Z,4.99
2023-02-11T23:57:33.181Z,5.06
2023-02-11T23:59:55.865Z,5.00
